createdAt,value
2022-12-31T00:00:08.655Z,100.00
2022-12-31T00:02:36.248Z,100.00
2022-12-31T00:05:03.442Z,100.00
2022-12-31T00:07:30.033Z,100.00
2022-12-31T00:09:56.611Z,100.00
2022-12-31T00:12:23.249Z,100.00
2022-12-31T00:14:49.809Z,100.00
2022-12-31T00:17:16.414Z,100.00
2022-12-31T00:19:43.679Z,100.00
2022-12-31T00:22:10.274Z,99.00
2022-12-31T00:24:36.826Z,99.55
2022-12-31T00:27:03.491Z,100.00
2022-12-31T00:29:30.028Z,99.45
2022-12-31T00:31:56.629Z,100.00
2022-12-31T00:34:23.305Z,100.00
2022-12-31T00:36:49.932Z,99.78
2022-12-31T00:39:16.512Z,100.00
2022-12-31T00:41:44.099Z,99.95
2022-12-31T00:44:14.495Z,100.00
2022-12-31T00:49:06.908Z,100.00
2022-12-31T00:51:33.744Z,100.00
2022-12-31T00:54:00.480Z,100.00
2022-12-31T00:56:29.099Z,100.00
2022-12-31T00:58:56.024Z,100.00
2022-12-31T01:01:26.032Z,100.00
2022-12-31T01:03:56.348Z,100.00
2022-12-31T01:06:23.285Z,100.00
2022-12-31T01:08:51.139Z,100.00
2022-12-31T01:11:19.871Z,100.00
2022-12-31T01:13:49.601Z,100.00
2022-12-31T01:16:18.073Z,100.00
2022-12-31T01:18:44.719Z,100.00
2022-12-31T01:21:12.630Z,100.00
2022-12-31T01:23:39.876Z,100.00
2022-12-31T01:26:08.972Z,100.00
2022-12-31T01:28:35.620Z,100.00
2022-12-31T01:31:13.663Z,100.00
2022-12-31T01:33:40.286Z,100.00
2022-12-31T01:36:18.949Z,100.00
2022-12-31T01:38:48.395Z,100.00
2022-12-31T01:41:19.175Z,100.00
2022-12-31T01:43:59.382Z,100.00
2022-12-31T01:46:36.163Z,100.00
2022-12-31T01:49:32.453Z,100.00
2022-12-31T01:52:07.448Z,100.00
2022-12-31T01:54:39.637Z,100.00
2022-12-31T01:57:08.191Z,100.00
2022-12-31T01:59:34.777Z,100.00
2022-12-31T02:02:01.890Z,100.00
2022-12-31T02:04:29.264Z,100.00
2022-12-31T02:07:05.339Z,100.00
2022-12-31T02:09:32.532Z,100.00
2022-12-31T02:11:59.252Z,100.00
2022-12-31T02:14:30.687Z,100.00
2022-12-31T02:17:06.050Z,100.00
2022-12-31T02:19:57.624Z,100.00
2022-12-31T02:22:49.436Z,100.00
2022-12-31T02:25:30.015Z,100.00
2022-12-31T02:28:22.866Z,100.00
2022-12-31T02:30:57.382Z,100.00
2022-12-31T02:34:01.057Z,100.00
2022-12-31T02:36:36.584Z,100.00
2022-12-31T02:39:06.071Z,100.00
2022-12-31T02:41:50.784Z,100.00
2022-12-31T02:44:27.542Z,100.00
2022-12-31T02:47:09.333Z,100.00
2022-12-31T02:50:03.490Z,100.00
2022-12-31T02:52:52.001Z,100.00
2022-12-31T02:55:30.585Z,100.00
2022-12-31T02:58:00.052Z,100.00
2022-12-31T03:00:48.788Z,100.00
2022-12-31T03:03:16.002Z,100.00
2022-12-31T03:05:44.526Z,99.65
2022-12-31T03:08:11.129Z,99.87
2022-12-31T03:10:37.724Z,100.00
2022-12-31T03:13:04.430Z,99.70
2022-12-31T03:15:33.294Z,99.25
2022-12-31T03:18:06.985Z,98.85
2022-12-31T03:20:53.529Z,99.02
2022-12-31T03:23:25.010Z,98.54
2022-12-31T03:25:53.267Z,97.39
2022-12-31T03:28:24.195Z,95.28
2022-12-31T03:30:57.411Z,94.77
2022-12-31T03:33:25.606Z,95.80
2022-12-31T03:35:53.187Z,95.08
2022-12-31T03:38:20.465Z,93.61
2022-12-31T03:40:50.660Z,92.98
2022-12-31T03:43:19.263Z,91.77
2022-12-31T03:45:51.674Z,92.07
2022-12-31T03:48:19.623Z,91.23
2022-12-31T03:50:46.231Z,92.27
2022-12-31T03:53:12.822Z,92.10
2022-12-31T03:55:39.469Z,91.41
2022-12-31T03:58:06.519Z,91.27
2022-12-31T04:00:33.153Z,90.93
2022-12-31T04:02:59.870Z,89.73
2022-12-31T04:05:26.464Z,90.23
2022-12-31T04:07:53.095Z,89.94
2022-12-31T04:10:20.351Z,89.24
2022-12-31T04:12:47.212Z,89.21
2022-12-31T04:15:18.198Z,88.03
2022-12-31T04:17:45.031Z,86.82
2022-12-31T04:20:12.020Z,88.79
2022-12-31T04:22:39.351Z,90.12
2022-12-31T04:25:11.200Z,89.53
2022-12-31T04:27:43.532Z,90.31
2022-12-31T04:30:12.527Z,90.12
2022-12-31T04:32:39.089Z,87.26
2022-12-31T04:35:06.219Z,86.67
2022-12-31T04:37:32.799Z,84.80
2022-12-31T04:40:05.462Z,84.47
2022-12-31T04:42:32.699Z,86.78
2022-12-31T04:44:59.272Z,85.28
2022-12-31T04:47:25.838Z,87.04
2022-12-31T04:49:52.385Z,86.61
2022-12-31T04:52:18.987Z,85.41
2022-12-31T04:54:45.519Z,87.14
2022-12-31T04:57:12.142Z,86.09
2022-12-31T04:59:39.629Z,85.26
2022-12-31T05:02:06.419Z,85.62
2022-12-31T05:04:33.372Z,87.80
2022-12-31T05:06:59.945Z,89.81
2022-12-31T05:09:28.230Z,89.30
2022-12-31T05:11:55.109Z,87.83
2022-12-31T05:14:22.164Z,88.89
2022-12-31T05:16:48.918Z,91.07
2022-12-31T05:19:15.660Z,92.00
2022-12-31T05:21:42.229Z,92.87
2022-12-31T05:24:08.952Z,92.50
2022-12-31T05:26:35.532Z,91.70
2022-12-31T05:29:02.092Z,91.36
2022-12-31T05:31:28.719Z,90.72
2022-12-31T05:33:55.278Z,91.12
2022-12-31T05:36:21.942Z,91.90
2022-12-31T05:38:48.519Z,92.88
2022-12-31T05:41:15.110Z,93.70
2022-12-31T05:43:41.646Z,92.92
2022-12-31T05:46:08.604Z,92.95
2022-12-31T05:48:35.209Z,92.83
2022-12-31T05:51:01.838Z,93.78
2022-12-31T05:53:28.411Z,93.63
2022-12-31T05:55:55.002Z,92.80
2022-12-31T05:58:21.639Z,91.44
2022-12-31T06:00:48.238Z,89.88
2022-12-31T06:03:14.909Z,90.65
2022-12-31T06:05:42.909Z,89.65
2022-12-31T06:08:11.101Z,88.80
2022-12-31T06:10:38.893Z,89.04
2022-12-31T06:13:05.563Z,89.21
2022-12-31T06:15:32.392Z,89.15
2022-12-31T06:17:59.045Z,89.98
2022-12-31T06:20:25.658Z,90.13
2022-12-31T06:22:52.322Z,90.04
2022-12-31T06:25:19.063Z,90.15
2022-12-31T06:27:45.724Z,91.27
2022-12-31T06:30:12.988Z,91.69
2022-12-31T06:32:40.685Z,91.87
2022-12-31T06:35:07.782Z,90.86
2022-12-31T06:37:34.370Z,91.02
2022-12-31T06:40:01.286Z,91.42
2022-12-31T06:42:30.826Z,91.35
2022-12-31T06:44:58.453Z,90.93
2022-12-31T06:47:25.722Z,90.78
2022-12-31T06:49:53.281Z,89.67
2022-12-31T06:52:20.590Z,88.90
2022-12-31T06:54:47.811Z,88.80
2022-12-31T06:57:14.846Z,88.66
2022-12-31T06:59:41.907Z,89.02
2022-12-31T07:02:22.730Z,89.53
2022-12-31T07:04:58.198Z,89.63
2022-12-31T07:07:36.980Z,89.58
2022-12-31T07:10:27.341Z,88.87
2022-12-31T07:13:13.088Z,88.61
2022-12-31T07:16:13.783Z,87.62
2022-12-31T07:18:56.459Z,87.34
2022-12-31T07:21:35.862Z,86.12
2022-12-31T07:24:03.354Z,86.93
2022-12-31T07:26:40.944Z,86.26
2022-12-31T07:29:11.934Z,86.01
2022-12-31T07:31:57.596Z,85.76
2022-12-31T07:34:45.098Z,86.09
2022-12-31T07:37:20.523Z,86.57
2022-12-31T07:40:20.916Z,86.03
2022-12-31T07:43:14.921Z,84.79
2022-12-31T07:45:50.145Z,84.74
2022-12-31T07:48:27.810Z,84.17
2022-12-31T07:50:56.477Z,82.47
2022-12-31T07:53:24.854Z,81.79
2022-12-31T07:55:57.237Z,82.56
2022-12-31T07:58:38.881Z,83.19
2022-12-31T08:01:05.994Z,81.88
2022-12-31T08:03:38.629Z,81.70
2022-12-31T08:06:14.399Z,81.08
2022-12-31T08:09:02.121Z,80.38
2022-12-31T08:11:53.772Z,79.56
2022-12-31T08:14:20.642Z,79.48
2022-12-31T08:16:47.629Z,79.46
2022-12-31T08:19:23.864Z,80.26
2022-12-31T08:22:22.092Z,79.76
2022-12-31T08:25:03.974Z,79.84
2022-12-31T08:27:55.339Z,80.55
2022-12-31T08:30:23.535Z,79.93
2022-12-31T08:33:05.376Z,79.62
2022-12-31T08:35:54.067Z,80.04
2022-12-31T08:38:34.812Z,79.36
2022-12-31T08:41:06.911Z,78.48
2022-12-31T08:43:55.159Z,76.23
2022-12-31T08:46:32.944Z,72.72
2022-12-31T08:49:00.347Z,70.58
2022-12-31T08:51:27.773Z,68.30
2022-12-31T08:53:55.375Z,69.66
2022-12-31T08:56:58.585Z,70.04
2022-12-31T08:59:47.978Z,72.35
2022-12-31T09:02:47.735Z,72.84
2022-12-31T09:05:26.859Z,74.41
2022-12-31T09:08:01.008Z,73.76
2022-12-31T09:10:34.982Z,72.82
2022-12-31T09:13:20.500Z,72.67
2022-12-31T09:16:27.830Z,71.28
2022-12-31T09:18:54.445Z,69.12
2022-12-31T09:21:21.206Z,68.34
2022-12-31T09:23:48.049Z,65.97
2022-12-31T09:26:39.341Z,65.19
2022-12-31T09:29:30.618Z,65.79
2022-12-31T09:32:29.371Z,62.42
2022-12-31T09:35:23.569Z,58.82
2022-12-31T09:38:16.268Z,57.13
2022-12-31T09:41:16.857Z,53.95
2022-12-31T09:44:10.979Z,52.43
2022-12-31T09:46:49.756Z,50.94
2022-12-31T09:49:55.558Z,50.51
2022-12-31T09:52:25.161Z,50.46
2022-12-31T09:55:19.888Z,48.46
2022-12-31T09:58:34.355Z,49.20
2022-12-31T10:01:19.174Z,48.29
2022-12-31T10:04:02.942Z,47.40
2022-12-31T10:06:56.878Z,46.86
2022-12-31T10:09:30.495Z,46.26
2022-12-31T10:12:16.349Z,46.63
2022-12-31T10:15:32.726Z,45.11
2022-12-31T10:18:14.494Z,44.83
2022-12-31T10:20:54.522Z,44.00
2022-12-31T10:23:40.974Z,43.46
2022-12-31T10:26:20.222Z,43.51
2022-12-31T10:28:52.930Z,43.75
2022-12-31T10:31:40.071Z,43.41
2022-12-31T10:34:25.439Z,42.28
2022-12-31T10:37:17.181Z,41.82
2022-12-31T10:39:58.868Z,41.04
2022-12-31T10:43:20.656Z,40.41
2022-12-31T10:46:05.273Z,40.18
2022-12-31T10:48:47.885Z,40.15
2022-12-31T10:51:34.803Z,42.09
2022-12-31T10:54:36.891Z,42.09
2022-12-31T10:57:07.352Z,41.55
2022-12-31T10:59:45.876Z,40.82
2022-12-31T11:02:32.806Z,41.75
2022-12-31T11:05:36.928Z,42.95
2022-12-31T11:08:15.527Z,43.32
2022-12-31T11:11:00.431Z,45.11
2022-12-31T11:13:51.225Z,43.91
2022-12-31T11:17:01.580Z,44.02
2022-12-31T11:19:40.232Z,43.18
2022-12-31T11:22:06.842Z,43.87
2022-12-31T11:24:41.124Z,43.37
2022-12-31T11:27:29.087Z,43.96
2022-12-31T11:30:04.828Z,45.38
2022-12-31T11:32:37.393Z,45.68
2022-12-31T11:35:16.463Z,46.09
2022-12-31T11:38:28.132Z,45.45
2022-12-31T11:41:13.831Z,45.60
2022-12-31T11:43:52.439Z,46.09
2022-12-31T11:46:33.908Z,45.43
2022-12-31T11:49:30.252Z,45.01
2022-12-31T11:52:24.715Z,44.99
2022-12-31T11:55:26.230Z,42.02
2022-12-31T11:57:53.441Z,40.37
2022-12-31T12:00:26.480Z,38.45
2022-12-31T12:02:56.530Z,36.94
2022-12-31T12:05:25.340Z,36.21
2022-12-31T12:07:53.334Z,34.32
2022-12-31T12:10:35.191Z,32.99
2022-12-31T12:13:13.220Z,34.19
2022-12-31T12:15:44.703Z,33.71
2022-12-31T12:18:24.437Z,33.58
2022-12-31T12:20:51.289Z,32.91
2022-12-31T12:23:25.287Z,32.15
2022-12-31T12:25:52.913Z,33.17
2022-12-31T12:28:25.733Z,35.42
2022-12-31T12:31:03.167Z,36.23
2022-12-31T12:33:40.830Z,36.60
2022-12-31T12:36:13.800Z,35.79
2022-12-31T12:38:40.621Z,34.45
2022-12-31T12:41:20.259Z,33.78
2022-12-31T12:43:47.050Z,34.37
2022-12-31T12:46:41.336Z,34.53
2022-12-31T12:49:40.487Z,34.13
2022-12-31T12:52:28.956Z,33.43
2022-12-31T12:55:14.733Z,33.22
2022-12-31T12:57:53.452Z,33.95
2022-12-31T13:00:29.684Z,34.96
2022-12-31T13:03:16.424Z,35.75
2022-12-31T13:05:51.489Z,37.05
2022-12-31T13:08:35.571Z,37.88
2022-12-31T13:11:15.656Z,40.18
2022-12-31T13:14:00.501Z,42.24
2022-12-31T13:16:48.937Z,43.48
2022-12-31T13:19:30.653Z,44.39
2022-12-31T13:22:34.206Z,45.80
2022-12-31T13:25:27.389Z,47.28
2022-12-31T13:27:57.278Z,48.24
2022-12-31T13:30:30.794Z,47.29
2022-12-31T13:33:02.023Z,51.93
2022-12-31T13:35:49.050Z,51.98
2022-12-31T13:38:29.209Z,53.55
2022-12-31T13:41:11.751Z,54.26
2022-12-31T13:43:50.829Z,55.79
2022-12-31T13:46:39.521Z,55.79
2022-12-31T13:49:14.336Z,56.24
2022-12-31T13:51:48.395Z,56.16
2022-12-31T13:54:17.938Z,56.92
2022-12-31T13:56:46.078Z,57.45
2022-12-31T13:59:35.345Z,57.47
2022-12-31T14:02:26.149Z,56.54
2022-12-31T14:05:03.210Z,56.95
2022-12-31T14:07:45.166Z,59.06
2022-12-31T14:10:21.633Z,64.45
2022-12-31T14:12:59.258Z,70.37
2022-12-31T14:15:35.142Z,75.59
2022-12-31T14:18:07.565Z,77.74
2022-12-31T14:20:47.042Z,87.02
2022-12-31T14:23:13.621Z,88.82
2022-12-31T14:25:49.751Z,99.58
2022-12-31T14:28:34.833Z,100.00
2022-12-31T14:31:36.700Z,100.00
2022-12-31T14:34:44.916Z,100.00
2022-12-31T14:37:19.748Z,100.00
2022-12-31T14:40:18.164Z,100.00
2022-12-31T14:43:13.233Z,100.00
2022-12-31T14:46:25.457Z,100.00
2022-12-31T14:49:07.040Z,100.00
2022-12-31T14:51:36.983Z,100.00
2022-12-31T14:54:03.967Z,100.00
2022-12-31T14:56:40.093Z,100.00
2022-12-31T14:59:35.679Z,100.00
2022-12-31T15:02:29.415Z,100.00
2022-12-31T15:05:16.196Z,100.00
2022-12-31T15:07:48.639Z,100.00
2022-12-31T15:10:22.750Z,100.00
2022-12-31T15:12:55.277Z,100.00
2022-12-31T15:15:56.638Z,100.00
2022-12-31T15:18:49.368Z,100.00
2022-12-31T15:21:31.059Z,100.00
2022-12-31T15:23:57.991Z,100.00
2022-12-31T15:26:34.680Z,100.00
2022-12-31T15:29:02.572Z,100.00
2022-12-31T15:31:31.531Z,100.00
2022-12-31T15:34:02.803Z,100.00
2022-12-31T15:36:32.298Z,100.00
2022-12-31T15:39:10.959Z,100.00
2022-12-31T15:42:27.293Z,100.00
2022-12-31T15:44:32.732Z,100.00
2022-12-31T15:47:17.385Z,100.00
2022-12-31T15:49:46.656Z,100.00
2022-12-31T15:52:22.531Z,100.00
2022-12-31T15:54:55.968Z,100.00
2022-12-31T15:57:41.486Z,100.00
2022-12-31T16:00:19.928Z,100.00
2022-12-31T16:02:48.867Z,100.00
2022-12-31T16:05:26.879Z,100.00
2022-12-31T16:07:58.319Z,100.00
2022-12-31T16:10:29.368Z,100.00
2022-12-31T16:12:57.388Z,100.00
2022-12-31T16:15:32.797Z,100.00
2022-12-31T16:18:02.554Z,100.00
2022-12-31T16:20:32.010Z,100.00
2022-12-31T16:23:02.232Z,100.00
2022-12-31T16:25:32.889Z,100.00
2022-12-31T16:28:02.058Z,100.00
2022-12-31T16:30:31.105Z,100.00
2022-12-31T16:33:03.954Z,100.00
2022-12-31T16:35:36.839Z,100.00
2022-12-31T16:38:12.775Z,100.00
2022-12-31T16:40:41.339Z,100.00
2022-12-31T16:43:44.501Z,100.00
2022-12-31T16:46:20.181Z,100.00
2022-12-31T16:48:59.403Z,100.00
2022-12-31T16:51:30.859Z,100.00
2022-12-31T16:53:58.742Z,100.00
2022-12-31T16:56:38.464Z,100.00
2022-12-31T16:59:15.061Z,100.00
2022-12-31T17:01:42.573Z,100.00
2022-12-31T17:04:12.127Z,100.00
2022-12-31T17:06:38.898Z,100.00
2022-12-31T17:09:18.569Z,100.00
2022-12-31T17:11:53.910Z,100.00
2022-12-31T17:14:27.298Z,100.00
2022-12-31T17:17:07.512Z,100.00
2022-12-31T17:19:48.889Z,100.00
2022-12-31T17:22:42.589Z,100.00
2022-12-31T17:25:21.802Z,100.00
2022-12-31T17:27:59.115Z,100.00
2022-12-31T17:30:35.141Z,100.00
2022-12-31T17:33:09.237Z,100.00
2022-12-31T17:35:41.944Z,100.00
2022-12-31T17:38:17.788Z,100.00
2022-12-31T17:40:53.594Z,100.00
2022-12-31T17:43:23.464Z,100.00
2022-12-31T17:45:51.429Z,100.00
2022-12-31T17:48:20.539Z,100.00
2022-12-31T17:50:58.176Z,100.00
2022-12-31T17:53:25.180Z,100.00
2022-12-31T17:55:56.008Z,100.00
2022-12-31T17:58:30.764Z,100.00
2022-12-31T18:00:58.716Z,100.00
2022-12-31T18:03:25.484Z,100.00
2022-12-31T18:05:52.136Z,100.00
2022-12-31T18:08:18.707Z,100.00
2022-12-31T18:10:45.650Z,100.00
2022-12-31T18:13:19.133Z,100.00
2022-12-31T18:15:46.512Z,100.00
2022-12-31T18:18:25.617Z,100.00
2022-12-31T18:21:01.339Z,100.00
2022-12-31T18:23:31.527Z,100.00
2022-12-31T18:25:58.150Z,100.00
2022-12-31T18:28:24.725Z,100.00
2022-12-31T18:30:52.152Z,100.00
2022-12-31T18:33:22.420Z,100.00
2022-12-31T18:36:09.897Z,100.00
2022-12-31T18:38:37.189Z,100.00
2022-12-31T18:41:04.190Z,100.00
2022-12-31T18:43:30.814Z,100.00
2022-12-31T18:45:57.826Z,100.00
2022-12-31T18:48:24.464Z,100.00
2022-12-31T18:50:51.210Z,100.00
2022-12-31T18:53:20.637Z,100.00
2022-12-31T18:55:50.737Z,100.00
2022-12-31T18:58:17.516Z,100.00
2022-12-31T19:00:45.683Z,100.00
2022-12-31T19:03:38.548Z,100.00
2022-12-31T19:06:05.254Z,100.00
2022-12-31T19:08:32.999Z,100.00
2022-12-31T19:11:01.053Z,100.00
2022-12-31T19:13:27.608Z,100.00
2022-12-31T19:15:55.527Z,100.00
2022-12-31T19:18:22.156Z,100.00
2022-12-31T19:20:48.828Z,100.00
2022-12-31T19:23:18.023Z,100.00
2022-12-31T19:25:46.429Z,100.00
2022-12-31T19:28:25.045Z,100.00
2022-12-31T19:30:52.627Z,100.00
2022-12-31T19:33:19.731Z,100.00
2022-12-31T19:35:47.017Z,100.00
2022-12-31T19:38:26.730Z,100.00
2022-12-31T19:40:53.859Z,100.00
2022-12-31T19:43:22.302Z,100.00
2022-12-31T19:45:50.757Z,100.00
2022-12-31T19:48:30.455Z,100.00
2022-12-31T19:50:59.519Z,100.00
2022-12-31T19:53:27.307Z,100.00
2022-12-31T19:55:54.262Z,100.00
2022-12-31T19:58:25.399Z,100.00
2022-12-31T20:00:58.209Z,100.00
2022-12-31T20:03:28.604Z,100.00
2022-12-31T20:06:07.568Z,100.00
2022-12-31T20:08:36.330Z,100.00
2022-12-31T20:11:12.484Z,100.00
2022-12-31T20:13:40.243Z,100.00
2022-12-31T20:16:12.899Z,100.00
2022-12-31T20:18:40.797Z,100.00
2022-12-31T20:21:19.137Z,100.00
2022-12-31T20:23:45.788Z,100.00
2022-12-31T20:26:12.719Z,100.00
2022-12-31T20:28:39.553Z,100.00
2022-12-31T20:31:08.312Z,100.00
2022-12-31T20:33:35.144Z,100.00
2022-12-31T20:36:06.730Z,100.00
2022-12-31T20:38:33.515Z,100.00
2022-12-31T20:41:08.300Z,100.00
2022-12-31T20:43:35.719Z,100.00
2022-12-31T20:46:12.677Z,100.00
2022-12-31T20:48:41.466Z,100.00
2022-12-31T20:51:08.120Z,100.00
2022-12-31T20:53:34.798Z,100.00
2022-12-31T20:56:08.815Z,100.00
2022-12-31T20:58:36.048Z,100.00
2022-12-31T21:01:07.025Z,100.00
2022-12-31T21:06:25.345Z,100.00
2022-12-31T21:08:52.295Z,100.00
2022-12-31T21:11:37.445Z,100.00
2022-12-31T21:14:04.119Z,100.00
2022-12-31T21:16:30.731Z,100.00
2022-12-31T21:18:57.469Z,100.00
2022-12-31T21:21:24.473Z,100.00
2022-12-31T21:23:51.201Z,100.00
2022-12-31T21:26:17.850Z,100.00
2022-12-31T21:28:44.915Z,100.00
2022-12-31T21:31:14.340Z,100.00
2022-12-31T21:33:45.796Z,100.00
2022-12-31T21:36:13.097Z,100.00
2022-12-31T21:38:39.943Z,100.00
2022-12-31T21:41:08.451Z,100.00
2022-12-31T21:43:35.266Z,100.00
2022-12-31T21:46:06.916Z,100.00
2022-12-31T21:48:33.665Z,100.00
2022-12-31T21:51:14.847Z,100.00
2022-12-31T21:53:41.504Z,100.00
2022-12-31T21:56:09.314Z,100.00
2022-12-31T21:58:37.805Z,100.00
2022-12-31T22:01:23.470Z,100.00
2022-12-31T22:03:50.491Z,100.00
2022-12-31T22:06:23.975Z,100.00
2022-12-31T22:08:53.116Z,100.00
2022-12-31T22:11:21.451Z,100.00
2022-12-31T22:13:48.313Z,100.00
2022-12-31T22:16:15.074Z,100.00
2022-12-31T22:18:43.954Z,100.00
2022-12-31T22:21:18.276Z,100.00
2022-12-31T22:23:47.764Z,100.00
2022-12-31T22:26:16.234Z,100.00
2022-12-31T22:28:43.894Z,100.00
2022-12-31T22:31:19.880Z,100.00
2022-12-31T22:33:46.978Z,100.00
2022-12-31T22:36:17.166Z,100.00
2022-12-31T22:38:44.799Z,100.00
2022-12-31T22:41:17.645Z,100.00
2022-12-31T22:43:46.845Z,100.00
2022-12-31T22:46:19.949Z,100.00
2022-12-31T22:48:47.409Z,100.00
2022-12-31T22:51:15.722Z,100.00
2022-12-31T22:53:43.514Z,100.00
2022-12-31T22:56:12.361Z,100.00
2022-12-31T22:58:39.049Z,100.00
2022-12-31T23:01:07.440Z,100.00
2022-12-31T23:03:34.178Z,100.00
2022-12-31T23:06:00.789Z,100.00
2022-12-31T23:08:27.395Z,100.00
2022-12-31T23:11:00.212Z,100.00
2022-12-31T23:13:50.895Z,100.00
2022-12-31T23:16:37.806Z,100.00
2022-12-31T23:19:24.457Z,100.00
2022-12-31T23:22:10.100Z,100.00
2022-12-31T23:24:37.341Z,100.00
2022-12-31T23:27:04.425Z,100.00
2022-12-31T23:29:31.016Z,100.00
2022-12-31T23:31:57.686Z,100.00
2022-12-31T23:34:24.367Z,100.00
2022-12-31T23:36:51.026Z,100.00
2022-12-31T23:39:17.659Z,100.00
2022-12-31T23:41:44.245Z,100.00
2022-12-31T23:44:12.262Z,100.00
2022-12-31T23:46:39.657Z,100.00
2022-12-31T23:49:06.663Z,100.00
2022-12-31T23:51:33.332Z,100.00
2022-12-31T23:54:00.795Z,100.00
2022-12-31T23:56:27.392Z,100.00
2022-12-31T23:58:58.603Z,100.00
